sensor_id;sensor_type;location;lat;lon;timestamp;P1;durP1;ratioP1;P2;durP2;ratioP2
68577;SDS011;61668;45.388;11.784;2023-03-31T00:01:38;25.70;;;14.30;;
68577;SDS011;61668;45.388;11.784;2023-03-31T00:04:07;25.30;;;13.50;;
68577;SDS011;61668;45.388;11.784;2023-03-31T00:06:37;27.30;;;14.50;;
68577;SDS011;61668;45.388;11.784;2023-03-31T00:09:14;24.40;;;13.90;;
68577;SDS011;61668;45.388;11.784;2023-03-31T00:11:44;23.90;;;13.80;;
68577;SDS011;61668;45.388;11.784;2023-03-31T00:14:10;27.00;;;14.70;;
68577;SDS011;61668;45.388;11.784;2023-03-31T00:16:37;29.00;;;16.30;;
68577;SDS011;61668;45.388;11.784;2023-03-31T00:19:04;29.50;;;15.50;;
68577;SDS011;61668;45.388;11.784;2023-03-31T00:21:34;28.30;;;15.00;;
68577;SDS011;61668;45.388;11.784;2023-03-31T00:24:10;27.40;;;16.10;;
68577;SDS011;61668;45.388;11.784;2023-03-31T00:26:37;28.20;;;15.50;;
68577;SDS011;61668;45.388;11.784;2023-03-31T00:29:07;29.50;;;16.50;;
68577;SDS011;61668;45.388;11.784;2023-03-31T00:31:34;27.70;;;16.80;;
68577;SDS011;61668;45.388;11.784;2023-03-31T00:34:00;25.90;;;14.60;;
68577;SDS011;61668;45.388;11.784;2023-03-31T00:36:26;25.70;;;15.00;;
68577;SDS011;61668;45.388;11.784;2023-03-31T00:38:53;27.90;;;16.40;;
68577;SDS011;61668;45.388;11.784;2023-03-31T00:41:24;28.80;;;15.50;;
68577;SDS011;61668;45.388;11.784;2023-03-31T00:44:16;28.20;;;16.70;;
68577;SDS011;61668;45.388;11.784;2023-03-31T00:47:17;27.80;;;16.10;;
68577;SDS011;61668;45.388;11.784;2023-03-31T00:49:50;28.50;;;14.50;;
68577;SDS011;61668;45.388;11.784;2023-03-31T00:52:31;28.30;;;15.80;;
68577;SDS011;61668;45.388;11.784;2023-03-31T00:55:08;30.10;;;14.90;;
68577;SDS011;61668;45.388;11.784;2023-03-31T00:57:40;27.40;;;15.20;;
68577;SDS011;61668;45.388;11.784;2023-03-31T01:00:09;29.20;;;14.90;;
68577;SDS011;61668;45.388;11.784;2023-03-31T01:02:44;28.30;;;17.50;;
68577;SDS011;61668;45.388;11.784;2023-03-31T01:05:22;24.20;;;14.50;;
68577;SDS011;61668;45.388;11.784;2023-03-31T01:08:00;27.70;;;15.80;;
68577;SDS011;61668;45.388;11.784;2023-03-31T01:10:27;30.70;;;16.10;;
68577;SDS011;61668;45.388;11.784;2023-03-31T01:12:54;31.20;;;15.70;;
68577;SDS011;61668;45.388;11.784;2023-03-31T01:15:21;31.70;;;15.90;;
68577;SDS011;61668;45.388;11.784;2023-03-31T01:17:47;28.40;;;16.20;;
68577;SDS011;61668;45.388;11.784;2023-03-31T01:27:36;30.90;;;14.40;;
68577;SDS011;61668;45.388;11.784;2023-03-31T01:43:36;28.80;;;15.50;;
68577;SDS011;61668;45.388;11.784;2023-03-31T01:49:06;28.00;;;15.00;;
68577;SDS011;61668;45.388;11.784;2023-03-31T01:52:21;26.50;;;15.00;;
68577;SDS011;61668;45.388;11.784;2023-03-31T01:54:59;26.80;;;14.50;;
68577;SDS011;61668;45.388;11.784;2023-03-31T01:57:32;30.60;;;16.10;;
68577;SDS011;61668;45.388;11.784;2023-03-31T02:00:09;29.50;;;14.90;;
68577;SDS011;61668;45.388;11.784;2023-03-31T02:02:41;27.60;;;14.60;;
68577;SDS011;61668;45.388;11.784;2023-03-31T02:05:16;29.50;;;16.60;;
68577;SDS011;61668;45.388;11.784;2023-03-31T02:08:05;31.10;;;16.90;;
68577;SDS011;61668;45.388;11.784;2023-03-31T02:10:35;28.20;;;15.20;;
68577;SDS011;61668;45.388;11.784;2023-03-31T02:13:03;28.40;;;16.90;;
68577;SDS011;61668;45.388;11.784;2023-03-31T02:15:33;29.90;;;15.50;;
68577;SDS011;61668;45.388;11.784;2023-03-31T02:18:03;29.60;;;17.00;;
68577;SDS011;61668;45.388;11.784;2023-03-31T02:20:37;32.30;;;16.70;;
68577;SDS011;61668;45.388;11.784;2023-03-31T02:23:08;29.10;;;15.70;;
68577;SDS011;61668;45.388;11.784;2023-03-31T02:25:43;30.20;;;15.80;;
68577;SDS011;61668;45.388;11.784;2023-03-31T02:28:24;28.40;;;15.00;;
68577;SDS011;61668;45.388;11.784;2023-03-31T02:33:38;33.60;;;17.70;;
68577;SDS011;61668;45.388;11.784;2023-03-31T02:36:05;27.30;;;14.90;;
68577;SDS011;61668;45.388;11.784;2023-03-31T02:38:35;29.30;;;16.20;;
68577;SDS011;61668;45.388;11.784;2023-03-31T02:41:05;32.50;;;17.00;;
68577;SDS011;61668;45.388;11.784;2023-03-31T02:43:31;27.30;;;16.50;;
68577;SDS011;61668;45.388;11.784;2023-03-31T02:45:57;29.60;;;15.40;;
68577;SDS011;61668;45.388;11.784;2023-03-31T02:48:24;33.00;;;16.10;;
68577;SDS011;61668;45.388;11.784;2023-03-31T03:11:18;30.50;;;16.20;;
68577;SDS011;61668;45.388;11.784;2023-03-31T03:16:38;31.60;;;16.70;;
68577;SDS011;61668;45.388;11.784;2023-03-31T03:19:06;26.20;;;14.30;;
68577;SDS011;61668;45.388;11.784;2023-03-31T03:21:33;28.00;;;15.60;;
68577;SDS011;61668;45.388;11.784;2023-03-31T03:23:59;29.50;;;17.60;;
68577;SDS011;61668;45.388;11.784;2023-03-31T03:26:26;30.30;;;17.10;;
68577;SDS011;61668;45.388;11.784;2023-03-31T03:28:56;29.60;;;17.20;;
68577;SDS011;61668;45.388;11.784;2023-03-31T03:31:22;33.40;;;16.50;;
68577;SDS011;61668;45.388;11.784;2023-03-31T03:33:50;30.30;;;17.70;;
68577;SDS011;61668;45.388;11.784;2023-03-31T03:36:16;29.40;;;15.50;;
68577;SDS011;61668;45.388;11.784;2023-03-31T03:38:42;30.00;;;15.60;;
68577;SDS011;61668;45.388;11.784;2023-03-31T03:41:08;28.40;;;15.70;;
68577;SDS011;61668;45.388;11.784;2023-03-31T03:43:34;32.20;;;18.10;;
68577;SDS011;61668;45.388;11.784;2023-03-31T03:46:00;32.60;;;17.40;;
68577;SDS011;61668;45.388;11.784;2023-03-31T03:48:26;29.10;;;16.50;;
68577;SDS011;61668;45.388;11.784;2023-03-31T03:50:52;29.20;;;15.70;;
68577;SDS011;61668;45.388;11.784;2023-03-31T03:53:19;29.40;;;16.10;;
68577;SDS011;61668;45.388;11.784;2023-03-31T03:55:45;27.70;;;16.20;;
68577;SDS011;61668;45.388;11.784;2023-03-31T03:58:15;32.20;;;16.90;;
68577;SDS011;61668;45.388;11.784;2023-03-31T04:00:41;31.70;;;17.60;;
68577;SDS011;61668;45.388;11.784;2023-03-31T04:03:09;32.50;;;16.80;;
68577;SDS011;61668;45.388;11.784;2023-03-31T04:05:35;30.70;;;16.50;;
68577;SDS011;61668;45.388;11.784;2023-03-31T04:08:01;29.20;;;15.40;;
68577;SDS011;61668;45.388;11.784;2023-03-31T04:10:29;30.60;;;16.70;;
68577;SDS011;61668;45.388;11.784;2023-03-31T04:12:55;29.00;;;15.40;;
68577;SDS011;61668;45.388;11.784;2023-03-31T04:15:20;28.30;;;15.90;;
68577;SDS011;61668;45.388;11.784;2023-03-31T04:17:46;30.60;;;16.10;;
68577;SDS011;61668;45.388;11.784;2023-03-31T04:20:16;28.40;;;16.40;;
68577;SDS011;61668;45.388;11.784;2023-03-31T04:22:42;31.50;;;17.50;;
68577;SDS011;61668;45.388;11.784;2023-03-31T04:25:12;29.30;;;16.60;;
68577;SDS011;61668;45.388;11.784;2023-03-31T04:27:45;28.30;;;15.40;;
68577;SDS011;61668;45.388;11.784;2023-03-31T04:30:15;31.50;;;17.00;;
68577;SDS011;61668;45.388;11.784;2023-03-31T04:32:51;28.50;;;15.20;;
68577;SDS011;61668;45.388;11.784;2023-03-31T04:35:20;28.00;;;16.30;;
68577;SDS011;61668;45.388;11.784;2023-03-31T04:37:47;28.50;;;15.70;;
68577;SDS011;61668;45.388;11.784;2023-03-31T04:40:15;32.10;;;16.30;;
68577;SDS011;61668;45.388;11.784;2023-03-31T04:42:44;30.10;;;16.40;;
68577;SDS011;61668;45.388;11.784;2023-03-31T04:45:11;29.70;;;16.20;;
68577;SDS011;61668;45.388;11.784;2023-03-31T04:47:37;30.50;;;16.60;;
68577;SDS011;61668;45.388;11.784;2023-03-31T04:50:03;32.40;;;16.60;;
68577;SDS011;61668;45.388;11.784;2023-03-31T04:52:30;33.20;;;16.30;;
68577;SDS011;61668;45.388;11.784;2023-03-31T04:54:55;29.60;;;16.30;;
68577;SDS011;61668;45.388;11.784;2023-03-31T04:57:21;28.60;;;16.00;;
68577;SDS011;61668;45.388;11.784;2023-03-31T04:59:47;30.70;;;16.90;;
68577;SDS011;61668;45.388;11.784;2023-03-31T05:02:12;28.90;;;15.50;;
68577;SDS011;61668;45.388;11.784;2023-03-31T05:04:39;33.40;;;16.60;;
68577;SDS011;61668;45.388;11.784;2023-03-31T05:07:05;31.40;;;16.60;;
68577;SDS011;61668;45.388;11.784;2023-03-31T05:09:31;29.80;;;17.40;;
68577;SDS011;61668;45.388;11.784;2023-03-31T05:11:56;30.10;;;17.60;;
68577;SDS011;61668;45.388;11.784;2023-03-31T05:14:22;32.30;;;17.80;;
68577;SDS011;61668;45.388;11.784;2023-03-31T05:16:48;27.10;;;16.70;;
68577;SDS011;61668;45.388;11.784;2023-03-31T05:19:13;32.50;;;17.70;;
68577;SDS011;61668;45.388;11.784;2023-03-31T05:21:39;32.80;;;16.40;;
68577;SDS011;61668;45.388;11.784;2023-03-31T05:24:05;29.60;;;17.90;;
68577;SDS011;61668;45.388;11.784;2023-03-31T05:26:31;33.20;;;17.70;;
68577;SDS011;61668;45.388;11.784;2023-03-31T05:28:58;31.00;;;17.40;;
68577;SDS011;61668;45.388;11.784;2023-03-31T05:31:23;35.60;;;18.90;;
68577;SDS011;61668;45.388;11.784;2023-03-31T05:33:50;30.50;;;16.10;;
68577;SDS011;61668;45.388;11.784;2023-03-31T05:36:16;33.20;;;17.20;;
68577;SDS011;61668;45.388;11.784;2023-03-31T05:38:42;30.30;;;15.40;;
68577;SDS011;61668;45.388;11.784;2023-03-31T05:41:09;31.70;;;17.00;;
68577;SDS011;61668;45.388;11.784;2023-03-31T05:43:37;31.70;;;17.90;;
68577;SDS011;61668;45.388;11.784;2023-03-31T05:46:04;30.60;;;16.30;;
68577;SDS011;61668;45.388;11.784;2023-03-31T05:48:30;38.00;;;19.40;;
68577;SDS011;61668;45.388;11.784;2023-03-31T05:50:57;59.40;;;26.30;;
68577;SDS011;61668;45.388;11.784;2023-03-31T05:53:24;63.60;;;26.50;;
68577;SDS011;61668;45.388;11.784;2023-03-31T05:55:59;54.80;;;23.10;;
68577;SDS011;61668;45.388;11.784;2023-03-31T05:58:27;32.40;;;17.10;;
68577;SDS011;61668;45.388;11.784;2023-03-31T06:01:08;31.70;;;17.90;;
68577;SDS011;61668;45.388;11.784;2023-03-31T06:03:37;29.90;;;17.30;;
68577;SDS011;61668;45.388;11.784;2023-03-31T06:06:08;36.70;;;17.60;;
68577;SDS011;61668;45.388;11.784;2023-03-31T06:08:37;31.80;;;17.60;;
68577;SDS011;61668;45.388;11.784;2023-03-31T06:11:11;29.30;;;17.50;;
68577;SDS011;61668;45.388;11.784;2023-03-31T06:13:39;29.70;;;17.00;;
68577;SDS011;61668;45.388;11.784;2023-03-31T06:16:06;32.20;;;17.30;;
68577;SDS011;61668;45.388;11.784;2023-03-31T06:18:33;29.10;;;16.60;;
68577;SDS011;61668;45.388;11.784;2023-03-31T06:21:01;33.90;;;17.10;;
68577;SDS011;61668;45.388;11.784;2023-03-31T06:23:27;31.90;;;17.80;;
68577;SDS011;61668;45.388;11.784;2023-03-31T06:25:53;28.40;;;15.50;;
68577;SDS011;61668;45.388;11.784;2023-03-31T06:28:20;33.70;;;17.10;;
68577;SDS011;61668;45.388;11.784;2023-03-31T06:30:46;31.00;;;17.90;;
68577;SDS011;61668;45.388;11.784;2023-03-31T06:33:11;30.80;;;18.10;;
68577;SDS011;61668;45.388;11.784;2023-03-31T06:35:38;29.10;;;16.00;;
68577;SDS011;61668;45.388;11.784;2023-03-31T06:38:05;34.90;;;17.20;;
68577;SDS011;61668;45.388;11.784;2023-03-31T06:40:31;33.60;;;19.00;;
68577;SDS011;61668;45.388;11.784;2023-03-31T06:42:58;31.10;;;17.40;;
68577;SDS011;61668;45.388;11.784;2023-03-31T06:45:24;33.10;;;18.50;;
68577;SDS011;61668;45.388;11.784;2023-03-31T06:47:50;33.30;;;18.20;;
68577;SDS011;61668;45.388;11.784;2023-03-31T06:50:16;32.60;;;17.30;;
68577;SDS011;61668;45.388;11.784;2023-03-31T06:52:42;34.20;;;17.40;;
68577;SDS011;61668;45.388;11.784;2023-03-31T06:55:08;34.80;;;18.20;;
68577;SDS011;61668;45.388;11.784;2023-03-31T06:57:34;28.60;;;16.60;;
68577;SDS011;61668;45.388;11.784;2023-03-31T07:00:01;34.10;;;16.40;;
68577;SDS011;61668;45.388;11.784;2023-03-31T07:02:28;32.20;;;16.90;;
68577;SDS011;61668;45.388;11.784;2023-03-31T07:04:54;30.40;;;16.90;;
68577;SDS011;61668;45.388;11.784;2023-03-31T07:07:20;31.00;;;16.50;;
68577;SDS011;61668;45.388;11.784;2023-03-31T07:09:46;31.70;;;15.70;;
68577;SDS011;61668;45.388;11.784;2023-03-31T07:12:11;31.00;;;16.50;;
68577;SDS011;61668;45.388;11.784;2023-03-31T07:14:37;31.90;;;16.80;;
68577;SDS011;61668;45.388;11.784;2023-03-31T07:17:03;31.90;;;18.00;;
68577;SDS011;61668;45.388;11.784;2023-03-31T07:19:29;29.40;;;17.20;;
68577;SDS011;61668;45.388;11.784;2023-03-31T07:21:54;32.30;;;18.10;;
68577;SDS011;61668;45.388;11.784;2023-03-31T07:24:21;32.90;;;16.30;;
68577;SDS011;61668;45.388;11.784;2023-03-31T07:26:47;30.20;;;16.00;;
68577;SDS011;61668;45.388;11.784;2023-03-31T07:29:13;32.10;;;17.10;;
68577;SDS011;61668;45.388;11.784;2023-03-31T07:31:38;32.70;;;18.00;;
68577;SDS011;61668;45.388;11.784;2023-03-31T07:34:04;33.60;;;16.70;;
68577;SDS011;61668;45.388;11.784;2023-03-31T07:36:30;32.10;;;17.50;;
68577;SDS011;61668;45.388;11.784;2023-03-31T07:38:56;29.60;;;15.90;;
68577;SDS011;61668;45.388;11.784;2023-03-31T07:41:22;30.30;;;16.90;;
68577;SDS011;61668;45.388;11.784;2023-03-31T07:43:49;29.90;;;17.40;;
68577;SDS011;61668;45.388;11.784;2023-03-31T07:46:20;33.20;;;17.90;;
68577;SDS011;61668;45.388;11.784;2023-03-31T07:48:48;35.10;;;16.80;;
68577;SDS011;61668;45.388;11.784;2023-03-31T07:51:17;30.00;;;16.60;;
68577;SDS011;61668;45.388;11.784;2023-03-31T07:53:44;34.40;;;17.20;;
68577;SDS011;61668;45.388;11.784;2023-03-31T07:56:11;29.60;;;16.50;;
68577;SDS011;61668;45.388;11.784;2023-03-31T07:58:37;33.00;;;16.00;;
68577;SDS011;61668;45.388;11.784;2023-03-31T08:01:03;32.20;;;17.00;;
68577;SDS011;61668;45.388;11.784;2023-03-31T08:03:29;34.30;;;16.00;;
68577;SDS011;61668;45.388;11.784;2023-03-31T08:05:56;32.10;;;16.30;;
68577;SDS011;61668;45.388;11.784;2023-03-31T08:08:23;30.40;;;16.10;;
68577;SDS011;61668;45.388;11.784;2023-03-31T08:10:48;31.50;;;16.70;;
68577;SDS011;61668;45.388;11.784;2023-03-31T08:13:15;28.50;;;16.10;;
68577;SDS011;61668;45.388;11.784;2023-03-31T08:15:40;30.60;;;16.40;;
68577;SDS011;61668;45.388;11.784;2023-03-31T08:18:06;31.50;;;15.60;;
68577;SDS011;61668;45.388;11.784;2023-03-31T08:20:32;34.20;;;17.90;;
68577;SDS011;61668;45.388;11.784;2023-03-31T08:22:58;29.80;;;16.50;;
68577;SDS011;61668;45.388;11.784;2023-03-31T08:25:24;28.80;;;16.20;;
68577;SDS011;61668;45.388;11.784;2023-03-31T08:27:50;29.20;;;16.80;;
68577;SDS011;61668;45.388;11.784;2023-03-31T08:30:17;28.50;;;14.80;;
68577;SDS011;61668;45.388;11.784;2023-03-31T08:32:43;32.70;;;14.30;;
68577;SDS011;61668;45.388;11.784;2023-03-31T08:35:09;30.70;;;16.20;;
68577;SDS011;61668;45.388;11.784;2023-03-31T08:37:36;32.10;;;16.20;;
68577;SDS011;61668;45.388;11.784;2023-03-31T08:40:04;35.40;;;18.00;;
68577;SDS011;61668;45.388;11.784;2023-03-31T08:42:49;29.50;;;17.10;;
68577;SDS011;61668;45.388;11.784;2023-03-31T08:45:28;31.70;;;16.90;;
68577;SDS011;61668;45.388;11.784;2023-03-31T08:48:01;30.00;;;15.60;;
68577;SDS011;61668;45.388;11.784;2023-03-31T08:50:34;30.00;;;15.80;;
68577;SDS011;61668;45.388;11.784;2023-03-31T08:55:49;30.20;;;14.90;;
68577;SDS011;61668;45.388;11.784;2023-03-31T08:58:49;32.40;;;15.50;;
68577;SDS011;61668;45.388;11.784;2023-03-31T09:07:17;28.20;;;16.20;;
68577;SDS011;61668;45.388;11.784;2023-03-31T09:15:52;31.60;;;15.40;;
68577;SDS011;61668;45.388;11.784;2023-03-31T09:18:31;34.80;;;18.10;;
68577;SDS011;61668;45.388;11.784;2023-03-31T09:21:15;31.60;;;17.10;;
68577;SDS011;61668;45.388;11.784;2023-03-31T09:23:50;30.60;;;15.80;;
68577;SDS011;61668;45.388;11.784;2023-03-31T09:26:41;32.30;;;16.30;;
68577;SDS011;61668;45.388;11.784;2023-03-31T09:29:15;30.40;;;15.90;;
68577;SDS011;61668;45.388;11.784;2023-03-31T09:31:45;29.20;;;16.20;;
68577;SDS011;61668;45.388;11.784;2023-03-31T09:34:15;32.70;;;16.70;;
68577;SDS011;61668;45.388;11.784;2023-03-31T09:36:44;31.10;;;15.60;;
68577;SDS011;61668;45.388;11.784;2023-03-31T09:39:13;32.90;;;15.90;;
68577;SDS011;61668;45.388;11.784;2023-03-31T09:41:50;30.10;;;16.60;;
68577;SDS011;61668;45.388;11.784;2023-03-31T09:44:30;31.20;;;17.10;;
68577;SDS011;61668;45.388;11.784;2023-03-31T09:50:09;31.70;;;15.40;;
68577;SDS011;61668;45.388;11.784;2023-03-31T09:52:56;30.60;;;17.00;;
68577;SDS011;61668;45.388;11.784;2023-03-31T09:55:27;28.50;;;15.80;;
68577;SDS011;61668;45.388;11.784;2023-03-31T09:58:12;30.70;;;16.00;;
68577;SDS011;61668;45.388;11.784;2023-03-31T10:00:42;30.10;;;15.90;;
68577;SDS011;61668;45.388;11.784;2023-03-31T10:03:21;32.80;;;17.60;;
68577;SDS011;61668;45.388;11.784;2023-03-31T10:05:51;35.40;;;20.50;;
68577;SDS011;61668;45.388;11.784;2023-03-31T10:10:56;29.40;;;15.70;;
68577;SDS011;61668;45.388;11.784;2023-03-31T10:13:35;29.20;;;15.90;;
68577;SDS011;61668;45.388;11.784;2023-03-31T10:16:14;32.90;;;17.40;;
68577;SDS011;61668;45.388;11.784;2023-03-31T10:18:47;29.80;;;15.80;;
68577;SDS011;61668;45.388;11.784;2023-03-31T10:21:25;30.80;;;16.90;;
68577;SDS011;61668;45.388;11.784;2023-03-31T10:23:53;33.00;;;15.90;;
68577;SDS011;61668;45.388;11.784;2023-03-31T10:26:25;30.30;;;17.20;;
68577;SDS011;61668;45.388;11.784;2023-03-31T10:28:52;31.10;;;16.30;;
68577;SDS011;61668;45.388;11.784;2023-03-31T10:31:28;29.40;;;16.50;;
68577;SDS011;61668;45.388;11.784;2023-03-31T10:34:05;32.50;;;16.80;;
68577;SDS011;61668;45.388;11.784;2023-03-31T10:36:32;30.50;;;16.30;;
68577;SDS011;61668;45.388;11.784;2023-03-31T10:39:04;31.40;;;16.10;;
68577;SDS011;61668;45.388;11.784;2023-03-31T10:41:31;31.80;;;16.70;;
68577;SDS011;61668;45.388;11.784;2023-03-31T10:43:59;27.00;;;16.40;;
68577;SDS011;61668;45.388;11.784;2023-03-31T10:46:42;31.70;;;17.60;;
68577;SDS011;61668;45.388;11.784;2023-03-31T10:49:23;32.80;;;17.50;;
68577;SDS011;61668;45.388;11.784;2023-03-31T10:51:58;32.10;;;16.90;;
68577;SDS011;61668;45.388;11.784;2023-03-31T10:54:25;31.40;;;18.10;;
68577;SDS011;61668;45.388;11.784;2023-03-31T10:56:54;30.70;;;17.20;;
68577;SDS011;61668;45.388;11.784;2023-03-31T11:02:54;34.30;;;18.40;;
68577;SDS011;61668;45.388;11.784;2023-03-31T11:05:40;30.90;;;17.90;;
68577;SDS011;61668;45.388;11.784;2023-03-31T11:19:58;50.40;;;30.90;;
68577;SDS011;61668;45.388;11.784;2023-03-31T11:23:01;67.40;;;34.00;;
68577;SDS011;61668;45.388;11.784;2023-03-31T11:25:57;144.80;;;63.90;;
68577;SDS011;61668;45.388;11.784;2023-03-31T11:42:36;30.20;;;17.30;;
68577;SDS011;61668;45.388;11.784;2023-03-31T11:45:39;28.00;;;16.50;;
68577;SDS011;61668;45.388;11.784;2023-03-31T11:48:45;31.90;;;18.70;;
68577;SDS011;61668;45.388;11.784;2023-03-31T11:51:54;30.60;;;15.00;;
68577;SDS011;61668;45.388;11.784;2023-03-31T11:57:29;22.50;;;11.50;;
68577;SDS011;61668;45.388;11.784;2023-03-31T12:00:20;24.00;;;11.90;;
68577;SDS011;61668;45.388;11.784;2023-03-31T12:05:43;26.70;;;12.00;;
68577;SDS011;61668;45.388;11.784;2023-03-31T12:08:25;24.10;;;12.70;;
68577;SDS011;61668;45.388;11.784;2023-03-31T12:11:08;22.50;;;11.60;;
68577;SDS011;61668;45.388;11.784;2023-03-31T12:19:26;22.70;;;12.70;;
68577;SDS011;61668;45.388;11.784;2023-03-31T12:22:03;20.70;;;11.00;;
68577;SDS011;61668;45.388;11.784;2023-03-31T12:24:33;24.40;;;12.50;;
68577;SDS011;61668;45.388;11.784;2023-03-31T12:27:19;25.90;;;13.00;;
68577;SDS011;61668;45.388;11.784;2023-03-31T12:32:40;23.30;;;11.20;;
68577;SDS011;61668;45.388;11.784;2023-03-31T12:35:24;20.70;;;11.40;;
68577;SDS011;61668;45.388;11.784;2023-03-31T12:40:29;20.20;;;11.20;;
68577;SDS011;61668;45.388;11.784;2023-03-31T12:43:27;24.20;;;10.30;;
68577;SDS011;61668;45.388;11.784;2023-03-31T12:57:35;20.60;;;9.40;;
68577;SDS011;61668;45.388;11.784;2023-03-31T13:02:37;18.20;;;9.00;;
68577;SDS011;61668;45.388;11.784;2023-03-31T13:08:04;16.50;;;7.60;;
68577;SDS011;61668;45.388;11.784;2023-03-31T13:10:55;20.80;;;8.80;;
68577;SDS011;61668;45.388;11.784;2023-03-31T13:13:22;19.10;;;9.50;;
68577;SDS011;61668;45.388;11.784;2023-03-31T13:15:57;17.80;;;7.80;;
68577;SDS011;61668;45.388;11.784;2023-03-31T13:18:26;13.40;;;6.00;;
68577;SDS011;61668;45.388;11.784;2023-03-31T13:21:02;14.10;;;6.30;;
68577;SDS011;61668;45.388;11.784;2023-03-31T13:23:35;17.50;;;6.50;;
68577;SDS011;61668;45.388;11.784;2023-03-31T13:32:04;15.40;;;5.00;;
68577;SDS011;61668;45.388;11.784;2023-03-31T13:34:46;10.20;;;3.30;;
68577;SDS011;61668;45.388;11.784;2023-03-31T13:38:34;11.30;;;3.70;;
68577;SDS011;61668;45.388;11.784;2023-03-31T13:49:49;13.50;;;4.20;;
68577;SDS011;61668;45.388;11.784;2023-03-31T13:52:54;15.30;;;4.50;;
68577;SDS011;61668;45.388;11.784;2023-03-31T14:07:45;12.10;;;3.50;;
68577;SDS011;61668;45.388;11.784;2023-03-31T14:10:33;12.80;;;3.80;;
68577;SDS011;61668;45.388;11.784;2023-03-31T14:13:15;13.60;;;4.50;;
68577;SDS011;61668;45.388;11.784;2023-03-31T14:18:16;12.40;;;3.90;;
68577;SDS011;61668;45.388;11.784;2023-03-31T14:21:20;11.40;;;4.10;;
68577;SDS011;61668;45.388;11.784;2023-03-31T14:24:31;15.20;;;4.90;;
68577;SDS011;61668;45.388;11.784;2023-03-31T14:27:19;14.70;;;4.90;;
68577;SDS011;61668;45.388;11.784;2023-03-31T14:38:18;13.90;;;4.50;;
68577;SDS011;61668;45.388;11.784;2023-03-31T14:40:50;12.70;;;3.80;;
68577;SDS011;61668;45.388;11.784;2023-03-31T14:43:25;13.00;;;3.80;;
68577;SDS011;61668;45.388;11.784;2023-03-31T14:46:01;12.10;;;3.90;;
68577;SDS011;61668;45.388;11.784;2023-03-31T14:48:30;12.80;;;4.00;;
68577;SDS011;61668;45.388;11.784;2023-03-31T14:51:01;13.10;;;3.80;;
68577;SDS011;61668;45.388;11.784;2023-03-31T14:53:27;14.40;;;4.50;;
68577;SDS011;61668;45.388;11.784;2023-03-31T14:56:04;11.70;;;4.20;;
68577;SDS011;61668;45.388;11.784;2023-03-31T14:58:38;13.60;;;4.90;;
68577;SDS011;61668;45.388;11.784;2023-03-31T15:01:14;15.10;;;6.10;;
68577;SDS011;61668;45.388;11.784;2023-03-31T15:03:43;14.40;;;4.90;;
68577;SDS011;61668;45.388;11.784;2023-03-31T15:06:09;15.30;;;5.90;;
68577;SDS011;61668;45.388;11.784;2023-03-31T15:08:36;12.80;;;5.60;;
68577;SDS011;61668;45.388;11.784;2023-03-31T15:11:05;10.50;;;4.70;;
68577;SDS011;61668;45.388;11.784;2023-03-31T15:13:37;13.00;;;4.70;;
68577;SDS011;61668;45.388;11.784;2023-03-31T15:16:36;13.70;;;4.60;;
68577;SDS011;61668;45.388;11.784;2023-03-31T15:19:29;13.00;;;3.50;;
68577;SDS011;61668;45.388;11.784;2023-03-31T15:21:58;11.80;;;4.30;;
68577;SDS011;61668;45.388;11.784;2023-03-31T15:24:32;12.90;;;4.60;;
68577;SDS011;61668;45.388;11.784;2023-03-31T15:30:06;15.00;;;5.10;;
68577;SDS011;61668;45.388;11.784;2023-03-31T15:32:35;11.90;;;4.30;;
68577;SDS011;61668;45.388;11.784;2023-03-31T15:35:04;12.50;;;4.00;;
68577;SDS011;61668;45.388;11.784;2023-03-31T15:37:41;14.80;;;5.40;;
68577;SDS011;61668;45.388;11.784;2023-03-31T15:42:47;14.10;;;5.20;;
68577;SDS011;61668;45.388;11.784;2023-03-31T15:45:34;15.00;;;4.50;;
68577;SDS011;61668;45.388;11.784;2023-03-31T15:48:01;15.90;;;4.40;;
68577;SDS011;61668;45.388;11.784;2023-03-31T15:50:28;14.00;;;4.20;;
68577;SDS011;61668;45.388;11.784;2023-03-31T15:52:55;15.10;;;4.00;;
68577;SDS011;61668;45.388;11.784;2023-03-31T15:55:39;13.40;;;4.90;;
68577;SDS011;61668;45.388;11.784;2023-03-31T15:58:11;14.00;;;5.10;;
68577;SDS011;61668;45.388;11.784;2023-03-31T16:00:45;10.80;;;4.60;;
68577;SDS011;61668;45.388;11.784;2023-03-31T16:03:19;13.20;;;4.60;;
68577;SDS011;61668;45.388;11.784;2023-03-31T16:05:57;13.30;;;4.30;;
68577;SDS011;61668;45.388;11.784;2023-03-31T16:09:09;12.80;;;5.50;;
68577;SDS011;61668;45.388;11.784;2023-03-31T16:11:26;13.80;;;5.30;;
68577;SDS011;61668;45.388;11.784;2023-03-31T16:14:14;13.30;;;5.80;;
68577;SDS011;61668;45.388;11.784;2023-03-31T16:17:48;14.20;;;5.00;;
68577;SDS011;61668;45.388;11.784;2023-03-31T16:19:49;15.00;;;5.40;;
68577;SDS011;61668;45.388;11.784;2023-03-31T16:22:21;13.30;;;4.40;;
68577;SDS011;61668;45.388;11.784;2023-03-31T16:24:50;16.40;;;6.10;;
68577;SDS011;61668;45.388;11.784;2023-03-31T16:27:16;20.30;;;8.70;;
68577;SDS011;61668;45.388;11.784;2023-03-31T16:29:41;21.40;;;8.30;;
68577;SDS011;61668;45.388;11.784;2023-03-31T16:32:15;20.40;;;8.00;;
68577;SDS011;61668;45.388;11.784;2023-03-31T16:34:58;19.50;;;8.30;;
68577;SDS011;61668;45.388;11.784;2023-03-31T16:37:26;19.10;;;7.90;;
68577;SDS011;61668;45.388;11.784;2023-03-31T16:39:52;23.60;;;9.30;;
68577;SDS011;61668;45.388;11.784;2023-03-31T16:42:18;18.80;;;8.00;;
68577;SDS011;61668;45.388;11.784;2023-03-31T16:44:44;18.60;;;8.80;;
68577;SDS011;61668;45.388;11.784;2023-03-31T16:47:13;25.30;;;11.30;;
68577;SDS011;61668;45.388;11.784;2023-03-31T16:49:40;20.60;;;11.00;;
68577;SDS011;61668;45.388;11.784;2023-03-31T16:52:06;16.10;;;7.90;;
68577;SDS011;61668;45.388;11.784;2023-03-31T16:54:34;21.80;;;8.90;;
68577;SDS011;61668;45.388;11.784;2023-03-31T16:57:00;17.30;;;8.30;;
68577;SDS011;61668;45.388;11.784;2023-03-31T16:59:26;17.50;;;7.60;;
68577;SDS011;61668;45.388;11.784;2023-03-31T17:01:52;19.70;;;7.50;;
68577;SDS011;61668;45.388;11.784;2023-03-31T17:04:17;16.10;;;7.60;;
68577;SDS011;61668;45.388;11.784;2023-03-31T17:06:44;21.50;;;7.90;;
68577;SDS011;61668;45.388;11.784;2023-03-31T17:09:10;19.40;;;9.00;;
68577;SDS011;61668;45.388;11.784;2023-03-31T17:11:36;21.20;;;9.70;;
68577;SDS011;61668;45.388;11.784;2023-03-31T17:14:02;22.10;;;9.10;;
68577;SDS011;61668;45.388;11.784;2023-03-31T17:16:29;22.70;;;11.20;;
68577;SDS011;61668;45.388;11.784;2023-03-31T17:18:56;26.70;;;11.10;;
68577;SDS011;61668;45.388;11.784;2023-03-31T17:21:21;23.30;;;11.30;;
68577;SDS011;61668;45.388;11.784;2023-03-31T17:23:47;25.70;;;11.20;;
68577;SDS011;61668;45.388;11.784;2023-03-31T17:26:14;24.60;;;11.80;;
68577;SDS011;61668;45.388;11.784;2023-03-31T17:28:41;25.00;;;10.70;;
68577;SDS011;61668;45.388;11.784;2023-03-31T17:31:15;20.10;;;10.80;;
68577;SDS011;61668;45.388;11.784;2023-03-31T17:33:44;22.90;;;11.00;;
68577;SDS011;61668;45.388;11.784;2023-03-31T17:36:11;23.20;;;11.90;;